Time;durP1;ratioP1;P1;durP2;ratioP2;P2;SDS_P1;SDS_P2;PMS_P1;PMS_P2;Temp;Humidity;BMP_temperature;BMP_pressure;BME280_temperature;BME280_humidity;BME280_pressure;Samples;Min_cycle;Max_cycle;Signal;HPM_P1;HPM_P2
2023/06/27 00:02:04;;;;;;;5.37;3.40;;;17.00;99.90;;;;;;5069110;28;20736;-74
2023/06/27 00:04:31;;;;;;;8.43;3.87;;;17.00;99.90;;;;;;5068639;28;20201;-74
2023/06/27 00:07:00;;;;;;;8.20;4.23;;;17.10;99.90;;;;;;5060762;28;20201;-75
2023/06/27 00:09:26;;;;;;;7.13;4.10;;;17.00;99.90;;;;;;5068817;28;20248;-74
2023/06/27 00:11:53;;;;;;;7.60;3.27;;;17.00;99.90;;;;;;5050787;28;20606;-73
2023/06/27 00:14:20;;;;;;;6.70;3.30;;;17.00;99.90;;;;;;5067154;28;20204;-74
2023/06/27 00:16:48;;;;;;;4.43;3.23;;;17.00;99.90;;;;;;5069137;28;20299;-73
2023/06/27 00:19:15;;;;;;;6.00;3.73;;;17.00;99.90;;;;;;5069133;28;20228;-74
2023/06/27 00:21:42;;;;;;;5.40;3.30;;;17.00;99.90;;;;;;5068987;28;20208;-75
2023/06/27 00:24:09;;;;;;;7.60;3.93;;;17.00;99.90;;;;;;5060085;28;20228;-73
2023/06/27 00:26:36;;;;;;;9.50;3.47;;;17.00;99.90;;;;;;5050912;28;20243;-74
2023/06/27 00:29:03;;;;;;;8.93;3.50;;;16.90;99.90;;;;;;5068583;28;20228;-73
2023/06/27 00:31:30;;;;;;;8.07;3.40;;;16.90;99.90;;;;;;5050994;28;20248;-73
2023/06/27 00:33:57;;;;;;;6.63;3.53;;;16.90;99.90;;;;;;5050823;28;20227;-74
2023/06/27 00:36:24;;;;;;;5.57;3.57;;;16.90;99.90;;;;;;5068165;28;20197;-74
2023/06/27 00:38:52;;;;;;;5.83;3.73;;;16.80;99.90;;;;;;5050534;28;20225;-75
2023/06/27 00:41:19;;;;;;;7.43;3.50;;;16.80;99.90;;;;;;5063531;28;20239;-73
2023/06/27 00:43:46;;;;;;;6.37;3.47;;;16.80;99.90;;;;;;5047604;28;20606;-74
2023/06/27 00:46:24;;;;;;;8.53;4.13;;;16.70;99.90;;;;;;5067492;28;20249;-73
2023/06/27 00:48:51;;;;;;;6.50;3.70;;;16.70;99.90;;;;;;5068321;28;20200;-74
2023/06/27 00:51:18;;;;;;;6.73;2.97;;;16.70;99.90;;;;;;5068216;28;20208;-74
2023/06/27 00:53:44;;;;;;;6.63;3.80;;;16.70;99.90;;;;;;5067739;28;20216;-73
2023/06/27 00:56:11;;;;;;;6.27;3.17;;;16.70;99.90;;;;;;5067500;28;20281;-74
2023/06/27 00:58:38;;;;;;;6.67;4.20;;;16.70;99.90;;;;;;5067993;28;20217;-73
2023/06/27 01:01:05;;;;;;;8.47;3.90;;;16.70;99.90;;;;;;5067879;28;20212;-74
2023/06/27 01:03:32;;;;;;;6.93;3.73;;;16.70;99.90;;;;;;5049906;28;20205;-74
2023/06/27 01:06:19;;;;;;;8.37;3.50;;;16.60;99.90;;;;;;5065092;28;20637;-73
2023/06/27 01:08:59;;;;;;;8.57;3.77;;;16.60;99.90;;;;;;5063560;28;20220;-74
2023/06/27 01:11:39;;;;;;;10.40;4.30;;;16.50;99.90;;;;;;5068055;28;20291;-74
2023/06/27 01:14:08;;;;;;;8.57;4.13;;;16.50;99.90;;;;;;5067490;28;20204;-73
2023/06/27 01:16:37;;;;;;;8.70;3.60;;;16.50;99.90;;;;;;5068214;28;20293;-73
2023/06/27 01:19:08;;;;;;;7.83;3.50;;;16.40;99.90;;;;;;5067908;28;20216;-74
2023/06/27 01:21:39;;;;;;;7.53;3.53;;;16.50;99.90;;;;;;5067487;28;20202;-76
2023/06/27 01:24:07;;;;;;;5.67;3.77;;;16.50;99.90;;;;;;5067520;28;20301;-73
2023/06/27 01:26:34;;;;;;;7.40;4.13;;;16.40;99.90;;;;;;5049787;28;20211;-73
2023/06/27 01:29:01;;;;;;;6.13;3.43;;;16.40;99.90;;;;;;5067434;28;20674;-74
2023/06/27 01:31:39;;;;;;;7.57;3.40;;;16.50;99.90;;;;;;5067684;28;20287;-75
2023/06/27 01:34:16;;;;;;;6.33;3.43;;;16.50;99.90;;;;;;5067123;28;20284;-73
2023/06/27 01:36:46;;;;;;;6.43;3.50;;;16.50;99.90;;;;;;5049581;28;20862;-75
2023/06/27 01:39:28;;;;;;;6.57;3.77;;;16.40;99.90;;;;;;5067507;28;20680;-74
2023/06/27 01:42:02;;;;;;;7.50;3.77;;;16.40;99.90;;;;;;5059192;28;20207;-73
2023/06/27 01:44:31;;;;;;;5.93;3.73;;;16.40;99.90;;;;;;5057764;28;20288;-74
2023/06/27 01:46:58;;;;;;;10.90;3.60;;;16.40;99.90;;;;;;5058057;28;20241;-74
2023/06/27 01:49:25;;;;;;;6.30;3.47;;;16.40;99.90;;;;;;5067268;28;20223;-74
2023/06/27 01:51:55;;;;;;;9.30;3.60;;;16.40;99.90;;;;;;5067518;28;20691;-73
2023/06/27 01:54:22;;;;;;;7.20;3.90;;;16.40;99.90;;;;;;5066846;28;20317;-74
2023/06/27 01:56:49;;;;;;;7.03;3.80;;;16.30;99.90;;;;;;5067380;28;20219;-75
2023/06/27 01:59:16;;;;;;;7.33;3.50;;;16.50;99.90;;;;;;5048789;28;20649;-75
2023/06/27 02:01:43;;;;;;;5.70;3.50;;;16.40;99.90;;;;;;5066696;28;20262;-73
2023/06/27 02:04:10;;;;;;;8.07;4.03;;;16.40;99.90;;;;;;5068153;28;20212;-73
2023/06/27 02:06:36;;;;;;;9.03;4.23;;;16.50;99.90;;;;;;5063891;28;20633;-75
2023/06/27 02:09:04;;;;;;;9.53;3.03;;;16.50;99.90;;;;;;5070875;28;20229;-73
2023/06/27 02:11:31;;;;;;;9.33;3.83;;;16.50;99.90;;;;;;5071318;28;20256;-74
2023/06/27 02:13:57;;;;;;;5.40;3.23;;;16.50;99.90;;;;;;5052686;28;20208;-74
2023/06/27 02:16:24;;;;;;;9.03;4.27;;;16.50;99.90;;;;;;5071301;28;20230;-74
2023/06/27 02:18:51;;;;;;;7.17;3.43;;;16.40;99.90;;;;;;5071649;28;20589;-74
2023/06/27 02:21:18;;;;;;;5.20;3.67;;;16.50;99.90;;;;;;5071584;28;20247;-74
2023/06/27 02:23:45;;;;;;;7.90;2.97;;;16.40;99.90;;;;;;5036743;28;20235;-73
2023/06/27 02:26:12;;;;;;;5.83;3.57;;;16.40;99.90;;;;;;5071036;28;20618;-74
2023/06/27 02:28:38;;;;;;;10.70;3.60;;;16.40;99.90;;;;;;5071043;28;20487;-74
2023/06/27 02:31:05;;;;;;;6.03;3.43;;;16.40;99.90;;;;;;5070905;28;20243;-74
2023/06/27 02:33:32;;;;;;;7.30;3.57;;;16.40;99.90;;;;;;5070333;28;20208;-74
2023/06/27 02:36:00;;;;;;;6.73;3.43;;;16.40;99.90;;;;;;5070928;28;20234;-73
2023/06/27 02:38:28;;;;;;;7.23;3.60;;;16.40;99.90;;;;;;5071010;28;20220;-73
2023/06/27 02:40:56;;;;;;;5.30;3.50;;;16.40;99.90;;;;;;5068574;28;20525;-75
2023/06/27 02:43:23;;;;;;;8.80;3.37;;;16.40;99.90;;;;;;5064521;28;20209;-74
2023/06/27 02:45:50;;;;;;;6.27;3.30;;;16.30;99.90;;;;;;5071015;28;20262;-74
2023/06/27 02:48:17;;;;;;;10.60;3.90;;;16.30;99.90;;;;;;5070680;28;20700;-73
2023/06/27 02:50:49;;;;;;;7.67;3.53;;;16.30;99.90;;;;;;5070880;28;20703;-72
2023/06/27 02:53:16;;;;;;;5.20;3.07;;;16.30;99.90;;;;;;5070402;28;20223;-74
2023/06/27 02:55:43;;;;;;;6.33;3.50;;;16.30;99.90;;;;;;5070470;28;20212;-73
2023/06/27 02:58:10;;;;;;;9.27;3.70;;;16.30;99.90;;;;;;5070342;28;20682;-73
2023/06/27 03:00:37;;;;;;;6.63;3.80;;;16.30;99.90;;;;;;5070848;28;20211;-74
2023/06/27 03:03:03;;;;;;;9.70;3.97;;;16.30;99.90;;;;;;5070632;28;20201;-75
2023/06/27 03:05:30;;;;;;;9.33;4.20;;;16.30;99.90;;;;;;5052518;28;20755;-73
2023/06/27 03:07:58;;;;;;;9.50;3.90;;;16.30;99.90;;;;;;5061744;28;20204;-76
2023/06/27 03:10:25;;;;;;;7.47;3.87;;;16.20;99.90;;;;;;5052109;28;20365;-75
2023/06/27 03:12:52;;;;;;;10.53;3.90;;;16.20;99.90;;;;;;5070111;28;20215;-75
2023/06/27 03:15:19;;;;;;;5.90;3.97;;;16.20;99.90;;;;;;5070238;28;20686;-73
2023/06/27 03:17:45;;;;;;;6.60;3.73;;;16.20;99.90;;;;;;5070912;28;20231;-75
2023/06/27 03:20:13;;;;;;;9.37;4.00;;;16.30;99.90;;;;;;5070109;28;20622;-75
2023/06/27 03:22:39;;;;;;;6.90;3.70;;;16.30;99.90;;;;;;5051870;28;20205;-73
2023/06/27 03:25:10;;;;;;;11.70;4.10;;;16.20;99.90;;;;;;5052010;28;20282;-73
2023/06/27 03:27:39;;;;;;;6.20;4.20;;;16.20;99.90;;;;;;5070312;28;20638;-74
2023/06/27 03:30:07;;;;;;;6.97;4.07;;;16.20;99.90;;;;;;5070109;28;20237;-74
2023/06/27 03:32:34;;;;;;;6.33;4.27;;;16.10;99.90;;;;;;5068694;28;20571;-74
2023/06/27 03:35:01;;;;;;;9.80;4.17;;;16.10;99.90;;;;;;5051691;28;20723;-72
2023/06/27 03:37:28;;;;;;;8.73;4.27;;;16.20;99.90;;;;;;5070344;28;20204;-74
2023/06/27 03:39:56;;;;;;;9.10;4.70;;;16.20;99.90;;;;;;5069988;28;20294;-73
2023/06/27 03:42:23;;;;;;;10.23;4.60;;;16.20;99.90;;;;;;5051593;28;20215;-74
2023/06/27 03:44:52;;;;;;;9.87;4.20;;;16.20;99.90;;;;;;5069687;28;20261;-74
2023/06/27 03:47:23;;;;;;;7.47;3.93;;;16.20;99.90;;;;;;5052041;28;20211;-74
2023/06/27 03:49:50;;;;;;;12.10;4.93;;;16.20;99.90;;;;;;5051470;28;20878;-74
2023/06/27 03:52:17;;;;;;;5.77;4.13;;;16.20;99.90;;;;;;5069871;28;20694;-73
2023/06/27 03:54:44;;;;;;;9.43;4.80;;;16.30;99.90;;;;;;5072050;28;20228;-74
2023/06/27 03:57:12;;;;;;;8.10;4.87;;;16.20;99.90;;;;;;5057427;28;20207;-74
2023/06/27 03:59:40;;;;;;;8.63;4.93;;;16.20;99.90;;;;;;5075719;28;20213;-74
2023/06/27 04:02:10;;;;;;;9.23;4.30;;;16.20;99.90;;;;;;5055918;28;20779;-74
2023/06/27 04:04:37;;;;;;;11.53;4.90;;;16.30;99.90;;;;;;5070343;28;20657;-75
2023/06/27 04:07:04;;;;;;;12.00;4.53;;;16.30;99.90;;;;;;5046857;28;20212;-75
2023/06/27 04:09:31;;;;;;;8.63;4.17;;;16.30;99.90;;;;;;5068807;28;20727;-74
2023/06/27 04:12:01;;;;;;;9.17;4.93;;;16.30;99.90;;;;;;5069781;28;20269;-74
2023/06/27 04:14:28;;;;;;;10.53;4.97;;;16.30;99.90;;;;;;5069526;28;20670;-74
2023/06/27 04:16:55;;;;;;;10.27;4.70;;;16.30;99.90;;;;;;5068630;28;20208;-73
2023/06/27 04:19:22;;;;;;;10.50;4.80;;;16.30;99.90;;;;;;5051594;28;20212;-73
2023/06/27 04:21:49;;;;;;;9.70;4.80;;;16.40;99.90;;;;;;5069367;28;20300;-74
2023/06/27 04:24:16;;;;;;;9.63;4.93;;;16.50;99.90;;;;;;5051483;28;20659;-74
2023/06/27 04:26:42;;;;;;;11.10;4.80;;;16.50;99.90;;;;;;5068120;28;20212;-74
2023/06/27 04:29:10;;;;;;;8.70;5.30;;;16.70;99.90;;;;;;5050518;28;20270;-74
2023/06/27 04:31:37;;;;;;;8.97;4.77;;;16.80;99.90;;;;;;5068422;28;20236;-72
2023/06/27 04:34:04;;;;;;;11.13;5.40;;;16.90;99.90;;;;;;5069362;28;20212;-73
2023/06/27 04:36:31;;;;;;;9.97;4.83;;;16.90;99.90;;;;;;5068029;28;20230;-74
2023/06/27 04:38:58;;;;;;;12.70;4.70;;;17.10;99.90;;;;;;5068441;28;20593;-73
2023/06/27 04:41:28;;;;;;;8.97;4.77;;;17.20;99.90;;;;;;5062683;28;20201;-74
2023/06/27 04:43:57;;;;;;;10.43;4.30;;;17.30;99.90;;;;;;5066537;28;20298;-73
2023/06/27 04:46:28;;;;;;;14.00;4.70;;;17.40;99.90;;;;;;5068225;28;20281;-74
2023/06/27 04:48:59;;;;;;;9.00;4.30;;;17.50;99.90;;;;;;5050173;28;20231;-73
2023/06/27 04:51:27;;;;;;;9.60;4.40;;;17.80;99.90;;;;;;5050540;28;20252;-73
2023/06/27 04:53:57;;;;;;;10.33;4.97;;;17.70;99.90;;;;;;5068649;28;20217;-75
2023/06/27 04:56:26;;;;;;;7.80;4.45;;;17.90;99.90;;;;;;5046840;28;20308;-75
2023/06/27 04:58:53;;;;;;;10.77;4.35;;;18.20;99.90;;;;;;5048506;28;20358;-74
2023/06/27 05:01:20;;;;;;;8.30;4.18;;;18.30;99.90;;;;;;5068283;28;20539;-74
2023/06/27 05:03:47;;;;;;;10.55;3.78;;;18.50;99.90;;;;;;5067829;28;20224;-73
2023/06/27 05:06:16;;;;;;;10.45;3.47;;;18.70;99.90;;;;;;5050649;28;20208;-73
2023/06/27 05:08:44;;;;;;;8.85;3.65;;;18.90;99.90;;;;;;5067559;28;20753;-74
2023/06/27 05:11:11;;;;;;;10.30;4.00;;;;;;;;;;5067304;28;20476;-74
2023/06/27 05:13:41;;;;;;;10.57;3.90;;;19.30;99.90;;;;;;5067692;28;20216;-74
2023/06/27 05:16:08;;;;;;;8.98;3.58;;;19.40;99.90;;;;;;5067915;28;20213;-74
2023/06/27 05:18:37;;;;;;;7.55;3.63;;;19.60;99.90;;;;;;5049506;28;20208;-73
2023/06/27 05:21:04;;;;;;;8.90;3.65;;;19.70;99.90;;;;;;5067413;28;20682;-74
2023/06/27 05:23:31;;;;;;;5.20;3.30;;;19.80;99.90;;;;;;5067539;28;20219;-73
2023/06/27 05:25:58;;;;;;;4.88;3.17;;;19.80;99.90;;;;;;5067495;28;20228;-73
2023/06/27 05:28:29;;;;;;;7.53;3.00;;;19.90;99.90;;;;;;5050246;28;20291;-74
2023/06/27 05:30:57;;;;;;;10.43;3.00;;;20.10;99.90;;;;;;5067259;28;20236;-73
2023/06/27 05:33:24;;;;;;;7.45;2.92;;;20.30;99.90;;;;;;5067611;28;20275;-73
2023/06/27 05:35:50;;;;;;;5.93;2.67;;;20.50;99.90;;;;;;5067680;28;20222;-73
2023/06/27 05:38:17;;;;;;;9.00;3.00;;;20.60;99.90;;;;;;5048727;28;20598;-73
2023/06/27 05:40:44;;;;;;;5.60;3.15;;;20.60;99.90;;;;;;5049075;28;20224;-73
2023/06/27 05:43:11;;;;;;;6.10;3.15;;;20.70;99.90;;;;;;5059620;28;20573;-74
2023/06/27 05:45:38;;;;;;;10.70;3.10;;;20.60;99.90;;;;;;5067641;28;20208;-74
2023/06/27 05:48:05;;;;;;;9.38;3.53;;;20.50;99.90;;;;;;5049941;28;20262;-74
2023/06/27 05:50:32;;;;;;;6.30;3.20;;;20.30;99.90;;;;;;5067612;28;20232;-74
2023/06/27 05:52:59;;;;;;;8.32;3.53;;;20.20;99.90;;;;;;5067656;28;20613;-74
2023/06/27 05:55:26;;;;;;;8.15;3.53;;;20.10;99.90;;;;;;5049599;28;20204;-74
2023/06/27 05:57:53;;;;;;;14.00;4.20;;;20.20;99.90;;;;;;5067380;28;20208;-74
2023/06/27 06:00:21;;;;;;;12.50;3.55;;;20.10;99.90;;;;;;5049789;28;20232;-73
2023/06/27 06:02:48;;;;;;;8.98;3.75;;;20.20;99.90;;;;;;5049779;28;20613;-72
2023/06/27 06:05:15;;;;;;;8.95;3.95;;;20.20;99.90;;;;;;5067601;28;20207;-73
2023/06/27 06:07:43;;;;;;;11.13;3.75;;;20.20;99.90;;;;;;5058605;28;20674;-73
2023/06/27 06:10:12;;;;;;;7.80;3.40;;;20.30;99.90;;;;;;5057754;28;20232;-73
2023/06/27 06:12:40;;;;;;;9.05;3.58;;;20.40;99.90;;;;;;5067294;28;20579;-74
2023/06/27 06:15:07;;;;;;;11.27;3.65;;;20.50;99.90;;;;;;5066951;28;20204;-73
2023/06/27 06:17:37;;;;;;;10.90;3.92;;;20.60;99.90;;;;;;5067431;28;20637;-74
2023/06/27 06:20:09;;;;;;;9.35;3.45;;;20.90;99.90;;;;;;5067265;28;20621;-75
2023/06/27 06:22:37;;;;;;;6.55;3.63;;;21.10;99.90;;;;;;5049196;28;20251;-73
2023/06/27 06:25:04;;;;;;;7.70;3.95;;;21.20;99.90;;;;;;5067664;28;20209;-72
2023/06/27 06:27:33;;;;;;;6.55;3.55;;;21.10;99.90;;;;;;5067545;28;20208;-73
2023/06/27 06:30:00;;;;;;;10.50;3.50;;;21.40;99.90;;;;;;5067209;28;20236;-73
2023/06/27 06:32:27;;;;;;;8.13;3.50;;;22.00;99.90;;;;;;5049494;28;20270;-75
2023/06/27 06:34:54;;;;;;;10.18;3.65;;;22.80;99.90;;;;;;5049561;28;20247;-74
2023/06/27 06:37:21;;;;;;;7.38;3.58;;;23.50;99.90;;;;;;5067141;28;20220;-73
2023/06/27 06:39:50;;;;;;;7.63;3.72;;;24.10;99.90;;;;;;5049469;28;20212;-73
2023/06/27 06:42:17;;;;;;;6.35;2.97;;;;;;;;;;5058532;28;20220;-73
2023/06/27 06:44:47;;;;;;;7.38;2.90;;;25.10;99.90;;;;;;5057505;28;20231;-73
2023/06/27 06:47:14;;;;;;;7.00;3.40;;;25.80;99.90;;;;;;5066897;28;20259;-74
2023/06/27 06:49:41;;;;;;;6.15;2.65;;;26.00;99.90;;;;;;5048897;28;20212;-74
2023/06/27 06:52:08;;;;;;;6.13;2.72;;;25.80;99.90;;;;;;5054202;28;20236;-74
2023/06/27 06:54:35;;;;;;;5.90;2.53;;;25.90;99.90;;;;;;5052480;28;20307;-73
2023/06/27 06:57:02;;;;;;;6.00;2.35;;;26.20;99.90;;;;;;5067692;28;20216;-74
2023/06/27 06:59:31;;;;;;;5.53;2.22;;;26.20;99.90;;;;;;5047409;28;20318;-75
2023/06/27 07:01:58;;;;;;;6.32;2.40;;;26.10;99.90;;;;;;5052955;28;20364;-73
2023/06/27 07:04:25;;;;;;;7.75;2.50;;;25.70;99.90;;;;;;5051739;28;20192;-74
2023/06/27 07:06:52;;;;;;;6.60;2.30;;;25.50;99.90;;;;;;5070531;28;20345;-77
2023/06/27 07:09:19;;;;;;;4.82;2.42;;;25.90;99.90;;;;;;5051733;28;20696;-73
2023/06/27 07:11:48;;;;;;;7.75;2.78;;;26.10;99.90;;;;;;5052415;28;20236;-73
2023/06/27 07:14:17;;;;;;;5.68;2.15;;;26.70;99.90;;;;;;5052128;28;20288;-73
2023/06/27 07:16:46;;;;;;;7.15;2.05;;;26.90;99.90;;;;;;5069941;28;20514;-74
2023/06/27 07:19:16;;;;;;;6.43;1.95;;;27.60;99.90;;;;;;5053070;28;20212;-74
2023/06/27 07:21:43;;;;;;;6.65;1.80;;;28.30;99.90;;;;;;5069813;28;20314;-74
2023/06/27 07:24:13;;;;;;;3.42;1.55;;;28.60;99.90;;;;;;5052105;28;20226;-74
2023/06/27 07:26:43;;;;;;;2.67;1.48;;;28.70;99.90;;;;;;5070512;28;20205;-74
2023/06/27 07:29:11;;;;;;;5.30;1.83;;;28.70;99.90;;;;;;5060541;28;20216;-75
2023/06/27 07:31:38;;;;;;;3.03;1.25;;;29.20;99.90;;;;;;5070260;28;20263;-73
2023/06/27 07:34:09;;;;;;;3.50;1.40;;;29.40;98.20;;;;;;5052327;28;20291;-72
2023/06/27 07:36:38;;;;;;;4.55;1.17;;;29.60;97.00;;;;;;5051207;28;20200;-73
2023/06/27 07:39:05;;;;;;;4.85;1.27;;;29.60;95.80;;;;;;5069052;28;20224;-73
2023/06/27 07:41:32;;;;;;;4.38;1.20;;;29.60;94.90;;;;;;5048782;28;20212;-73
2023/06/27 07:44:03;;;;;;;3.05;1.17;;;29.60;94.50;;;;;;5043658;28;20951;-73
2023/06/27 07:46:30;;;;;;;4.00;1.33;;;29.20;94.10;;;;;;5051704;28;20212;-74
2023/06/27 07:48:59;;;;;;;3.05;1.40;;;29.30;93.50;;;;;;5052495;28;20674;-74
2023/06/27 07:51:26;;;;;;;3.70;1.23;;;29.10;93.40;;;;;;5051425;28;20224;-73
2023/06/27 07:53:56;;;;;;;5.18;1.58;;;29.10;93.50;;;;;;5052102;28;20315;-75
2023/06/27 07:56:27;;;;;;;4.10;1.42;;;29.00;93.30;;;;;;5051742;28;20266;-73
2023/06/27 07:58:54;;;;;;;3.90;1.20;;;28.90;92.80;;;;;;5043103;28;20743;-76
2023/06/27 08:01:21;;;;;;;3.38;1.17;;;29.00;92.80;;;;;;5050275;28;20255;-74
2023/06/27 08:03:48;;;;;;;5.20;1.55;;;29.00;92.20;;;;;;5051256;28;20192;-74
2023/06/27 08:06:20;;;;;;;3.65;1.20;;;29.00;91.80;;;;;;5052448;28;20197;-74
2023/06/27 08:08:48;;;;;;;3.10;1.30;;;28.80;92.40;;;;;;5059837;28;20250;-74
2023/06/27 08:11:16;;;;;;;3.05;1.17;;;28.70;92.50;;;;;;5049100;28;20297;-74
2023/06/27 08:13:43;;;;;;;3.05;1.17;;;28.80;92.20;;;;;;5068179;28;20658;-74
2023/06/27 08:16:11;;;;;;;3.83;1.02;;;28.60;91.10;;;;;;5068786;28;20664;-75
2023/06/27 08:18:40;;;;;;;2.53;0.90;;;28.50;90.40;;;;;;5069159;28;20247;-74
2023/06/27 08:21:10;;;;;;;2.33;1.23;;;28.50;90.50;;;;;;5061334;28;20623;-73
2023/06/27 08:23:37;;;;;;;3.60;1.08;;;28.30;90.90;;;;;;5068877;28;20281;-73
2023/06/27 08:26:13;;;;;;;4.25;1.25;;;28.00;90.80;;;;;;5052085;28;20211;-76
2023/06/27 08:28:43;;;;;;;2.03;0.80;;;27.70;91.00;;;;;;5051205;28;20592;-73
2023/06/27 08:31:11;;;;;;;2.13;0.80;;;27.60;91.40;;;;;;5059264;28;20232;-74
2023/06/27 08:33:39;;;;;;;2.08;0.88;;;27.50;91.30;;;;;;5051002;28;20250;-72
2023/06/27 08:36:07;;;;;;;2.78;0.93;;;27.60;91.50;;;;;;5050157;28;20673;-73
2023/06/27 08:38:36;;;;;;;2.45;0.82;;;27.70;91.30;;;;;;5067376;28;20227;-73
2023/06/27 08:41:03;;;;;;;3.53;1.20;;;27.50;90.70;;;;;;5066065;28;20626;-73
2023/06/27 08:43:30;;;;;;;1.55;0.90;;;27.00;91.10;;;;;;5045577;28;20208;-74
2023/06/27 08:45:57;;;;;;;1.85;1.08;;;26.70;91.30;;;;;;5050355;28;20369;-74
2023/06/27 08:48:28;;;;;;;4.20;1.23;;;26.90;91.60;;;;;;5050837;28;20200;-72
2023/06/27 08:50:58;;;;;;;2.65;0.98;;;27.20;91.30;;;;;;5068525;28;20220;-73
2023/06/27 08:53:28;;;;;;;2.22;0.90;;;27.40;90.80;;;;;;5050206;28;20213;-74
2023/06/27 08:56:02;;;;;;;2.75;0.90;;;27.70;90.20;;;;;;5050608;28;20219;-73
2023/06/27 08:58:34;;;;;;;1.55;1.08;;;27.60;89.80;;;;;;5050168;28;20330;-73
2023/06/27 09:01:01;;;;;;;2.60;0.70;;;27.50;87.00;;;;;;5068484;28;20215;-74
2023/06/27 09:03:30;;;;;;;3.78;0.73;;;27.10;86.80;;;;;;5050407;28;20275;-73
2023/06/27 09:05:58;;;;;;;3.33;1.45;;;26.90;87.10;;;;;;5067526;28;20215;-73
2023/06/27 09:08:25;;;;;;;3.55;1.00;;;26.70;87.60;;;;;;5050352;28;20236;-73
2023/06/27 09:10:52;;;;;;;2.78;0.80;;;26.50;89.00;;;;;;5067862;28;20236;-75
2023/06/27 09:13:22;;;;;;;2.90;0.90;;;26.30;90.00;;;;;;5068121;28;20239;-73
2023/06/27 09:15:49;;;;;;;2.20;0.80;;;26.20;90.20;;;;;;5049855;28;20212;-74
2023/06/27 09:18:16;;;;;;;1.98;1.23;;;26.00;90.60;;;;;;5050470;28;20243;-75
2023/06/27 09:20:44;;;;;;;1.08;0.70;;;26.20;91.00;;;;;;5067848;28;20204;-74
2023/06/27 09:23:11;;;;;;;1.25;0.73;;;26.40;90.60;;;;;;5068280;28;20265;-74
2023/06/27 09:25:38;;;;;;;2.38;1.08;;;26.60;90.10;;;;;;5068306;28;20205;-72
2023/06/27 09:28:18;;;;;;;3.55;1.00;;;26.70;89.90;;;;;;5067083;28;20204;-73
2023/06/27 09:30:59;;;;;;;2.20;0.98;;;26.40;88.60;;;;;;5049931;28;20204;-73
2023/06/27 09:33:31;;;;;;;1.88;0.80;;;26.20;87.50;;;;;;5067909;28;20283;-73
2023/06/27 09:35:58;;;;;;;5.43;1.23;;;26.00;88.00;;;;;;5068187;28;20552;-74
2023/06/27 09:38:34;;;;;;;2.63;0.77;;;26.00;86.30;;;;;;5067646;28;20232;-73
2023/06/27 09:41:08;;;;;;;3.22;0.73;;;26.00;86.90;;;;;;5065077;28;20217;-72
2023/06/27 09:43:36;;;;;;;1.38;0.73;;;26.30;87.60;;;;;;5063595;28;20214;-73
2023/06/27 09:46:06;;;;;;;1.63;0.70;;;26.20;86.00;;;;;;5067611;28;20240;-76
2023/06/27 09:48:35;;;;;;;0.90;0.60;;;26.30;85.70;;;;;;5068461;28;20196;-76
2023/06/27 09:51:08;;;;;;;1.50;1.20;;;26.40;85.90;;;;;;5068663;28;20743;-77
2023/06/27 09:53:35;;;;;;;2.53;0.70;;;26.20;84.80;;;;;;5067552;28;20224;-77
2023/06/27 09:56:02;;;;;;;2.65;0.90;;;26.00;85.40;;;;;;5067805;28;20675;-75
2023/06/27 09:58:31;;;;;;;2.53;0.85;;;25.90;87.40;;;;;;5067654;28;20208;-75
2023/06/27 10:01:05;;;;;;;2.63;0.90;;;26.30;86.80;;;;;;5057660;28;20677;-74
2023/06/27 10:03:35;;;;;;;1.67;1.00;;;26.50;87.60;;;;;;5068310;28;20200;-74
2023/06/27 10:06:03;;;;;;;3.28;0.80;;;26.60;86.20;;;;;;5067675;28;20209;-72
2023/06/27 10:08:38;;;;;;;3.33;0.90;;;26.80;86.30;;;;;;5067044;28;20223;-74
2023/06/27 10:11:05;;;;;;;2.00;0.70;;;26.90;84.60;;;;;;5067071;28;20599;-74
2023/06/27 10:13:34;;;;;;;3.63;0.90;;;27.00;83.80;;;;;;5067308;28;20209;-74
2023/06/27 10:16:05;;;;;;;2.83;1.20;;;27.00;83.70;;;;;;5067184;28;20208;-74
2023/06/27 10:18:32;;;;;;;4.68;1.13;;;26.80;84.50;;;;;;5066917;28;20243;-73
2023/06/27 10:21:02;;;;;;;3.70;0.60;;;26.90;85.20;;;;;;5049272;28;20733;-74
2023/06/27 10:23:34;;;;;;;2.63;0.73;;;26.90;84.40;;;;;;5049002;28;20234;-76
2023/06/27 10:26:02;;;;;;;2.15;0.80;;;26.70;83.80;;;;;;5052077;28;20295;-74
2023/06/27 10:28:30;;;;;;;2.38;1.25;;;26.50;83.40;;;;;;5053075;28;20216;-74
2023/06/27 10:30:58;;;;;;;2.65;0.82;;;26.40;83.60;;;;;;5071377;28;20253;-74
2023/06/27 10:33:29;;;;;;;3.20;0.80;;;26.30;84.30;;;;;;5070986;28;20224;-72
2023/06/27 10:36:02;;;;;;;4.22;1.25;;;26.10;85.50;;;;;;5071337;28;20360;-74
2023/06/27 10:38:34;;;;;;;5.07;1.23;;;25.80;87.70;;;;;;5066102;28;20219;-74
2023/06/27 10:41:05;;;;;;;3.55;1.10;;;25.80;86.90;;;;;;5068947;28;20676;-74
2023/06/27 10:43:38;;;;;;;2.15;0.73;;;25.80;87.10;;;;;;5066367;28;20244;-72
2023/06/27 10:46:19;;;;;;;1.80;0.88;;;25.90;88.10;;;;;;5053445;28;20204;-73
2023/06/27 10:48:53;;;;;;;2.80;1.83;;;26.00;87.70;;;;;;5052360;28;20200;-74
2023/06/27 10:51:22;;;;;;;2.33;0.90;;;26.00;87.50;;;;;;5071174;28;20208;-75
2023/06/27 10:54:12;;;;;;;4.60;1.00;;;26.00;87.70;;;;;;5070762;28;20704;-74
2023/06/27 10:57:00;;;;;;;2.78;1.20;;;26.10;87.80;;;;;;5071107;28;20211;-75
2023/06/27 10:59:27;;;;;;;2.63;0.98;;;26.20;88.20;;;;;;5041342;28;20205;-74
2023/06/27 11:02:04;;;;;;;2.38;1.00;;;26.20;87.60;;;;;;5068510;28;20242;-74
2023/06/27 11:04:43;;;;;;;2.78;0.95;;;26.20;86.60;;;;;;5044316;28;20681;-73
2023/06/27 11:07:18;;;;;;;2.72;0.85;;;26.20;85.70;;;;;;5070124;28;20573;-74
2023/06/27 11:09:54;;;;;;;3.03;1.10;;;26.10;85.00;;;;;;5051921;28;20294;-76
2023/06/27 11:12:23;;;;;;;2.05;1.00;;;25.90;85.40;;;;;;5051714;28;20714;-73
2023/06/27 11:14:53;;;;;;;2.72;0.98;;;25.70;86.10;;;;;;5052361;28;20220;-74
2023/06/27 11:17:23;;;;;;;1.60;1.10;;;25.50;86.30;;;;;;5070465;28;20595;-73
2023/06/27 11:19:51;;;;;;;1.40;0.90;;;25.50;85.90;;;;;;5070207;28;20274;-72
2023/06/27 11:22:18;;;;;;;1.60;0.80;;;25.60;86.00;;;;;;5070032;28;20693;-74
2023/06/27 11:24:45;;;;;;;2.42;1.15;;;25.80;85.70;;;;;;5052800;28;20220;-74
2023/06/27 11:27:15;;;;;;;1.77;0.80;;;25.80;86.10;;;;;;5071285;28;20205;-74
2023/06/27 11:29:42;;;;;;;2.42;1.10;;;25.90;86.20;;;;;;5052095;28;20212;-74
2023/06/27 11:32:10;;;;;;;4.40;1.05;;;25.70;85.30;;;;;;5044374;28;20525;-74
2023/06/27 11:34:42;;;;;;;4.00;1.00;;;25.60;85.50;;;;;;5070352;28;20208;-74
2023/06/27 11:37:11;;;;;;;3.38;1.13;;;25.50;85.60;;;;;;5051088;28;20204;-73
2023/06/27 11:39:38;;;;;;;3.47;0.90;;;25.60;86.60;;;;;;5060559;28;20677;-74
2023/06/27 11:42:05;;;;;;;4.28;0.85;;;25.70;87.10;;;;;;5061263;28;20657;-74
2023/06/27 11:44:32;;;;;;;5.03;1.27;;;25.60;87.10;;;;;;5052011;28;20208;-75
2023/06/27 11:47:03;;;;;;;1.35;0.85;;;25.40;88.00;;;;;;5052248;28;20212;-74
2023/06/27 11:49:31;;;;;;;2.95;1.55;;;25.20;88.10;;;;;;5051981;28;20201;-73
2023/06/27 11:52:00;;;;;;;4.20;1.38;;;25.00;88.30;;;;;;5052199;28;20322;-75
2023/06/27 11:54:27;;;;;;;3.42;1.20;;;24.90;89.10;;;;;;5051219;28;20227;-75
2023/06/27 11:57:00;;;;;;;4.32;1.20;;;24.90;88.60;;;;;;5049996;28;20212;-76
2023/06/27 11:59:32;;;;;;;3.28;1.10;;;25.00;89.60;;;;;;5045851;28;20539;-73
2023/06/27 12:02:02;;;;;;;2.80;0.90;;;25.20;89.90;;;;;;5069527;28;20209;-74
2023/06/27 12:04:29;;;;;;;3.33;1.05;;;25.50;89.10;;;;;;5064407;28;20327;-75
2023/06/27 12:07:16;;;;;;;2.20;0.85;;;25.70;88.50;;;;;;5051974;28;20209;-74
2023/06/27 12:09:44;;;;;;;4.10;1.30;;;26.00;88.60;;;;;;5050314;28;20233;-75
2023/06/27 12:12:11;;;;;;;2.25;0.90;;;26.00;88.10;;;;;;5051671;28;20257;-76
2023/06/27 12:14:38;;;;;;;3.50;0.98;;;26.10;87.20;;;;;;5069556;28;20302;-76
2023/06/27 12:17:20;;;;;;;2.38;1.08;;;26.10;86.20;;;;;;5043597;28;20204;-73
2023/06/27 12:19:49;;;;;;;4.90;1.40;;;25.80;86.30;;;;;;5069077;28;20215;-75
2023/06/27 12:22:16;;;;;;;1.85;0.88;;;25.80;86.90;;;;;;5069612;28;20258;-74
2023/06/27 12:24:43;;;;;;;2.40;1.20;;;26.20;87.20;;;;;;5068982;28;20283;-74
2023/06/27 12:27:11;;;;;;;1.45;0.80;;;26.30;85.80;;;;;;5050698;28;20204;-74
2023/06/27 12:29:38;;;;;;;1.45;1.02;;;26.30;84.90;;;;;;5068824;28;20215;-72
2023/06/27 12:32:06;;;;;;;4.82;1.10;;;26.30;84.90;;;;;;5069414;28;20224;-75
2023/06/27 12:34:33;;;;;;;3.42;1.05;;;26.20;84.20;;;;;;5069427;28;20283;-74
2023/06/27 12:37:03;;;;;;;4.45;1.30;;;26.30;84.70;;;;;;5068212;28;20627;-74
2023/06/27 12:39:30;;;;;;;2.83;1.00;;;26.40;84.80;;;;;;5069042;28;20304;-74
2023/06/27 12:41:57;;;;;;;3.22;0.88;;;26.60;84.10;;;;;;5069144;28;20575;-73
2023/06/27 12:44:24;;;;;;;3.63;1.08;;;26.50;82.80;;;;;;5051050;28;20211;-75
2023/06/27 12:46:51;;;;;;;2.47;0.98;;;26.70;82.60;;;;;;5068721;28;20265;-75
2023/06/27 12:49:18;;;;;;;3.05;1.00;;;27.00;82.60;;;;;;5068001;28;20200;-74
2023/06/27 12:51:45;;;;;;;1.70;0.70;;;27.10;81.70;;;;;;5068549;28;20213;-74
2023/06/27 12:54:12;;;;;;;2.15;0.82;;;27.20;80.40;;;;;;5058455;28;20243;-73